Time;durP1;ratioP1;P1;durP2;ratioP2;P2;SDS_P1;SDS_P2;PMS_P1;PMS_P2;Temp;Humidity;BMP_temperature;BMP_pressure;BME280_temperature;BME280_humidity;BME280_pressure;Samples;Min_cycle;Max_cycle;Signal;HPM_P1;HPM_P2
2022/05/29 00:00:36;;;;;;;19.40;5.93;;;;;;;38.89;40.46;101112.66;5076311;28;20448;-77
2022/05/29 00:03:02;;;;;;;12.33;5.30;;;;;;;38.93;40.07;101107.44;5075899;28;20436;-77
2022/05/29 00:05:28;;;;;;;12.93;5.00;;;;;;;38.92;40.28;101103.91;5075997;28;20444;-77
2022/05/29 00:07:56;;;;;;;16.43;7.87;;;;;;;38.93;40.02;101091.94;5092733;28;20412;-77
2022/05/29 00:10:22;;;;;;;10.20;5.10;;;;;;;38.92;40.12;101097.69;5075717;28;20492;-75
2022/05/29 00:12:48;;;;;;;20.23;7.13;;;;;;;38.99;39.64;101092.63;5075757;28;20503;-76
2022/05/29 00:15:15;;;;;;;11.43;5.90;;;;;;;38.83;39.72;101091.38;5094020;28;20913;-76
2022/05/29 00:17:41;;;;;;;9.90;5.37;;;;;;;38.85;39.40;101079.09;5093887;28;20444;-75
2022/05/29 00:20:08;;;;;;;14.23;5.90;;;;;;;38.91;39.91;101087.94;5093887;28;20393;-76
2022/05/29 00:22:34;;;;;;;13.90;5.77;;;;;;;38.86;39.91;101079.94;5093911;28;20803;-76
2022/05/29 00:25:05;;;;;;;13.07;6.17;;;;;;;38.76;40.37;101078.25;5075492;28;20413;-77
2022/05/29 00:27:31;;;;;;;16.17;6.90;;;;;;;38.82;40.00;101081.66;5071909;28;20975;-78
2022/05/29 00:29:57;;;;;;;20.77;6.10;;;;;;;38.82;40.27;101082.44;5089023;28;20460;-78
2022/05/29 00:32:23;;;;;;;12.27;6.60;;;;;;;38.77;40.75;101081.75;5088678;28;20426;-78
2022/05/29 00:34:49;;;;;;;15.80;7.60;;;;;;;38.76;40.27;101069.31;5088924;28;20426;-76
2022/05/29 00:37:15;;;;;;;12.87;5.60;;;;;;;38.82;39.99;101077.03;5088854;28;20425;-78
2022/05/29 00:39:42;;;;;;;12.37;5.77;;;;;;;38.85;40.06;101068.25;5088754;28;20410;-75
2022/05/29 00:42:12;;;;;;;9.73;4.10;;;;;;;38.82;40.21;101063.47;5071930;28;20515;-75
2022/05/29 00:44:39;;;;;;;17.20;5.90;;;;;;;38.79;40.11;101060.56;5071802;28;20422;-75
2022/05/29 00:47:20;;;;;;;7.57;4.50;;;;;;;38.80;40.56;101060.28;5072761;28;20417;-76
2022/05/29 00:49:49;;;;;;;14.10;5.27;;;;;;;38.86;40.74;101044.69;5071810;28;20450;-78
2022/05/29 00:52:25;;;;;;;13.27;6.03;;;;;;;38.83;40.88;101043.38;5072435;28;20402;-78
2022/05/29 00:55:25;;;;;;;17.20;8.20;;;;;;;38.81;41.20;101042.09;5072207;28;20808;-76
2022/05/29 00:58:00;;;;;;;13.77;5.53;;;;;;;38.78;40.90;101037.25;5040316;28;20470;-78
2022/05/29 01:00:29;;;;;;;8.80;5.70;;;;;;;38.79;40.46;101034.22;5088962;28;20445;-78
2022/05/29 01:02:58;;;;;;;19.10;8.30;;;;;;;38.75;40.41;101032.47;5071520;28;20425;-78
2022/05/29 01:05:26;;;;;;;20.57;6.90;;;;;;;38.85;40.11;101037.63;5071556;28;20508;-77
2022/05/29 01:08:06;;;;;;;14.30;6.67;;;;;;;38.88;40.08;101034.31;5071293;28;20848;-77
2022/05/29 01:10:49;;;;;;;16.20;8.57;;;;;;;38.87;40.29;101043.56;5089068;28;20456;-78
2022/05/29 01:13:26;;;;;;;12.10;6.23;;;;;;;38.90;39.65;101035.59;5071689;28;20474;-78
2022/05/29 01:16:16;;;;;;;10.63;5.20;;;;;;;38.83;39.82;101029.81;5086710;28;20436;-77
2022/05/29 01:18:49;;;;;;;14.40;5.57;;;;;;;38.82;40.31;101022.00;5088135;28;20428;-78
2022/05/29 01:21:49;;;;;;;11.53;4.90;;;;;;;38.75;40.38;101013.50;5087996;28;20786;-78
2022/05/29 01:24:54;;;;;;;9.77;5.53;;;;;;;38.80;40.41;101008.75;5071134;28;20607;-76
2022/05/29 01:27:57;;;;;;;16.53;6.67;;;;;;;38.77;40.42;101000.41;5087713;28;21010;-75
2022/05/29 01:30:25;;;;;;;14.40;5.47;;;;;;;38.86;40.34;101004.81;5072110;28;20461;-77
2022/05/29 01:33:32;;;;;;;20.83;6.20;;;;;;;38.85;40.38;101005.09;5087939;28;20410;-78
2022/05/29 01:36:11;;;;;;;10.13;4.50;;;;;;;38.77;40.61;100997.69;5072261;28;20808;-75
2022/05/29 01:38:51;;;;;;;16.27;6.13;;;;;;;38.64;41.12;101005.56;5071062;28;20442;-76
2022/05/29 01:41:48;;;;;;;15.90;6.40;;;;;;;38.66;41.45;101006.03;5070765;28;20425;-76
2022/05/29 01:44:26;;;;;;;8.87;4.97;;;;;;;38.76;40.72;101015.09;5069756;28;20513;-75
2022/05/29 01:46:57;;;;;;;22.23;5.80;;;;;;;38.68;40.62;101008.47;5087707;28;20432;-77
2022/05/29 01:49:30;;;;;;;13.67;5.87;;;;;;;38.73;40.05;100999.41;5071053;28;20543;-75
2022/05/29 01:52:06;;;;;;;9.57;5.33;;;;;;;38.82;39.67;101000.28;5087543;28;20466;-75
2022/05/29 01:54:38;;;;;;;12.97;5.70;;;;;;;38.83;39.62;100999.19;5070672;28;20409;-76
2022/05/29 01:57:36;;;;;;;14.13;5.00;;;;;;;38.77;39.82;100993.06;5087531;28;20983;-76
2022/05/29 02:00:13;;;;;;;9.83;5.03;;;;;;;38.75;39.73;100994.50;5071499;28;20492;-75
2022/05/29 02:02:43;;;;;;;8.50;5.13;;;;;;;38.80;39.81;100987.06;5070494;28;20441;-75
2022/05/29 02:05:16;;;;;;;22.03;6.37;;;;;;;38.81;39.95;100991.38;5072013;28;20390;-76
2022/05/29 02:07:48;;;;;;;11.13;5.70;;;;;;;38.82;39.35;100990.25;5087494;28;20483;-77
2022/05/29 02:10:20;;;;;;;12.43;4.57;;;;;;;38.86;39.40;101001.28;5070419;28;20477;-78
2022/05/29 02:13:02;;;;;;;12.80;6.30;;;;;;;38.83;39.34;100997.25;5087320;28;20813;-78
2022/05/29 02:15:36;;;;;;;10.30;5.17;;;;;;;38.79;39.66;100993.56;5070544;28;20425;-75
2022/05/29 02:18:05;;;;;;;14.23;5.50;;;;;;;38.80;40.13;100980.84;5087060;28;20437;-75
2022/05/29 02:20:38;;;;;;;11.20;5.00;;;;;;;38.73;40.46;100986.66;5071831;28;20402;-75
2022/05/29 02:23:13;;;;;;;15.50;5.30;;;;;;;38.68;40.40;100986.78;5087237;28;20496;-75
2022/05/29 02:25:40;;;;;;;9.13;4.63;;;;;;;38.69;40.00;100991.88;5066434;28;20487;-77
2022/05/29 02:28:11;;;;;;;19.43;6.23;;;;;;;38.71;40.31;100994.28;5050074;28;20849;-77
2022/05/29 02:31:04;;;;;;;11.67;5.17;;;;;;;38.67;40.39;100988.69;5051292;28;20454;-76
2022/05/29 02:33:41;;;;;;;11.00;5.40;;;;;;;38.71;40.64;100986.16;5042106;28;20489;-74
2022/05/29 02:36:23;;;;;;;8.80;3.83;;;;;;;38.78;40.29;100983.81;5050301;28;20426;-74
2022/05/29 02:39:13;;;;;;;17.23;5.53;;;;;;;38.81;40.27;100996.00;5050285;28;20995;-76
2022/05/29 02:42:03;;;;;;;8.60;4.70;;;;;;;38.74;40.95;100998.34;5050198;28;20522;-76
2022/05/29 02:45:00;;;;;;;21.40;7.60;;;;;;;38.73;41.08;100994.00;5051329;28;20490;-76
2022/05/29 02:47:52;;;;;;;12.40;5.60;;;;;;;38.73;41.02;100991.28;5066538;28;20956;-76
2022/05/29 02:50:24;;;;;;;12.70;6.80;;;;;;;38.72;40.91;100992.41;5032811;28;20896;-76
2022/05/29 02:52:52;;;;;;;16.83;6.60;;;;;;;38.70;41.57;100996.19;5050115;28;20422;-76
2022/05/29 02:55:20;;;;;;;16.13;5.50;;;;;;;38.69;41.14;101000.03;5044326;28;20937;-75
2022/05/29 02:57:51;;;;;;;12.87;5.37;;;;;;;38.69;40.86;100999.22;5029961;28;20443;-76
2022/05/29 03:00:18;;;;;;;12.70;5.70;;;;;;;38.62;40.58;100999.66;5046618;28;20434;-76
2022/05/29 03:02:53;;;;;;;12.60;5.47;;;;;;;38.62;40.41;101010.50;5041109;28;20415;-75
2022/05/29 03:06:07;;;;;;;15.00;4.63;;;;;;;38.68;40.40;101009.25;5049899;28;20434;-75
2022/05/29 03:09:05;;;;;;;11.57;5.53;;;;;;;38.69;40.33;101013.56;5022536;28;20861;-76
2022/05/29 03:11:44;;;;;;;12.40;4.40;;;;;;;38.61;40.65;101013.50;5066920;28;20426;-75
2022/05/29 03:14:28;;;;;;;14.67;4.43;;;;;;;38.67;40.75;101025.81;5053976;28;20537;-77
2022/05/29 03:17:21;;;;;;;9.33;4.77;;;;;;;38.65;40.86;101031.56;5052483;28;20425;-76
2022/05/29 03:20:03;;;;;;;13.33;6.30;;;;;;;38.75;40.67;101027.03;5052652;28;20422;-76
2022/05/29 03:22:50;;;;;;;9.57;4.20;;;;;;;38.78;40.70;101029.13;5053509;28;20510;-77
2022/05/29 03:25:27;;;;;;;9.83;5.47;;;;;;;38.82;40.41;101028.22;5053215;28;20520;-76
2022/05/29 03:27:56;;;;;;;18.33;5.27;;;;;;;38.79;40.43;101038.84;5074767;28;20440;-76
2022/05/29 03:30:45;;;;;;;17.00;5.83;;;;;;;38.81;40.04;101032.03;5074694;28;20464;-75
2022/05/29 03:33:13;;;;;;;9.60;5.23;;;;;;;38.85;39.59;101033.00;5074811;28;20424;-75
2022/05/29 03:36:07;;;;;;;13.47;4.87;;;;;;;38.88;39.51;101043.25;5074689;28;20432;-76
2022/05/29 03:38:33;;;;;;;10.27;5.97;;;;;;;38.85;39.36;101038.44;5088575;28;20447;-77
2022/05/29 03:41:04;;;;;;;10.60;5.17;;;;;;;38.76;40.06;101040.28;5076248;28;20423;-77
2022/05/29 03:43:30;;;;;;;17.37;6.77;;;;;;;38.76;40.25;101034.88;5076325;28;20413;-75
2022/05/29 03:45:56;;;;;;;22.67;6.87;;;;;;;38.76;39.97;101034.06;5076415;28;20424;-75
2022/05/29 03:48:22;;;;;;;9.90;4.70;;;;;;;38.69;40.01;101024.41;5076363;28;20450;-75
2022/05/29 03:50:48;;;;;;;10.83;4.53;;;;;;;38.70;40.32;101039.56;5076451;28;20830;-74
2022/05/29 03:53:14;;;;;;;12.53;5.03;;;;;;;38.69;40.28;101037.97;5076586;28;20408;-75
2022/05/29 03:55:40;;;;;;;8.13;4.50;;;;;;;38.66;40.71;101043.19;5076115;28;20420;-75
2022/05/29 03:58:06;;;;;;;18.23;5.17;;;;;;;38.64;40.47;101045.44;5076046;28;20448;-75
2022/05/29 04:00:32;;;;;;;18.17;6.40;;;;;;;38.62;40.46;101056.59;5076115;28;20528;-75
2022/05/29 04:02:59;;;;;;;9.30;4.47;;;;;;;38.59;40.38;101057.19;5076012;28;20417;-76
2022/05/29 04:05:25;;;;;;;13.57;4.90;;;;;;;38.60;40.48;101066.09;5075701;28;20440;-75
2022/05/29 04:13:25;;;;;;;16.73;5.97;;;;;;;38.68;40.16;101062.69;5094399;28;20426;-76
2022/05/29 04:15:52;;;;;;;19.20;5.50;;;;;;;38.71;40.18;101059.34;5075032;28;20427;-76
2022/05/29 04:18:20;;;;;;;14.63;4.23;;;;;;;38.78;40.25;101053.53;5092159;28;20425;-76
2022/05/29 04:20:51;;;;;;;10.50;5.57;;;;;;;38.78;39.76;101045.41;5075552;28;20974;-76
2022/05/29 04:23:17;;;;;;;10.87;4.60;;;;;;;38.81;39.75;101040.16;5074734;28;20432;-77
2022/05/29 04:25:44;;;;;;;8.80;4.60;;;;;;;38.77;40.19;101049.22;5064366;28;20463;-75
2022/05/29 04:28:11;;;;;;;9.10;5.80;;;;;;;38.74;40.21;101047.94;5033762;28;20605;-77
2022/05/29 04:30:37;;;;;;;12.67;5.90;;;;;;;38.69;40.16;101051.53;5050468;28;20512;-78
2022/05/29 04:33:03;;;;;;;10.37;4.53;;;;;;;38.69;40.01;101048.81;5050949;28;20418;-77
2022/05/29 04:35:41;;;;;;;11.87;5.10;;;;;;;38.70;39.66;101053.13;5050535;28;21203;-75
2022/05/29 04:38:08;;;;;;;22.00;7.00;;;;;;;38.72;40.19;101057.47;5051819;28;20454;-77
2022/05/29 04:40:37;;;;;;;10.90;4.10;;;;;;;38.71;40.46;101056.63;5051082;28;20442;-76
2022/05/29 04:43:03;;;;;;;11.50;4.50;;;;;;;38.68;40.59;101066.19;5050209;28;20943;-77
2022/05/29 04:45:30;;;;;;;11.63;6.00;;;;;;;38.64;40.59;101076.03;5070867;28;20445;-77
2022/05/29 04:47:56;;;;;;;14.10;7.07;;;;;;;38.64;40.57;101076.03;5070027;28;20436;-78
2022/05/29 04:50:22;;;;;;;14.27;4.80;;;;;;;38.60;40.25;101077.75;5069764;28;20470;-74
2022/05/29 04:52:50;;;;;;;10.30;5.90;;;;;;;38.66;40.33;101081.94;5070253;28;20852;-78
2022/05/29 04:55:18;;;;;;;9.63;5.27;;;;;;;38.68;40.00;101081.66;5087405;28;20471;-78
2022/05/29 04:57:44;;;;;;;18.60;5.20;;;;;;;38.65;40.65;101077.66;5071297;28;20449;-76
2022/05/29 05:00:11;;;;;;;13.13;5.90;;;;;;;38.66;40.39;101073.81;5088397;28;20418;-75
2022/05/29 05:02:37;;;;;;;10.20;6.27;;;;;;;38.60;39.86;101058.78;5088387;28;20868;-76
2022/05/29 05:05:04;;;;;;;15.07;7.33;;;;;;;38.64;39.97;101058.97;5088633;28;20992;-75
2022/05/29 05:07:30;;;;;;;17.20;5.30;;;;;;;38.63;40.20;101049.25;5088241;28;20453;-78
2022/05/29 05:09:56;;;;;;;14.33;6.00;;;;;;;38.66;40.05;101048.63;5088154;28;20465;-78
2022/05/29 05:12:22;;;;;;;15.23;6.23;;;;;;;38.60;40.65;101052.56;5088109;28;20424;-77
2022/05/29 05:14:48;;;;;;;11.50;5.20;;;;;;;38.61;40.78;101044.13;5088214;28;20786;-77
2022/05/29 05:17:14;;;;;;;15.83;6.73;;;;;;;38.51;40.76;101055.22;5072271;28;20409;-77
2022/05/29 05:19:40;;;;;;;10.53;4.03;;;;;;;38.57;40.74;101048.56;5088204;28;20418;-75
2022/05/29 05:22:09;;;;;;;10.83;4.97;;;;;;;38.50;40.88;101050.91;5071908;28;20800;-75
2022/05/29 05:24:38;;;;;;;10.03;5.40;;;;;;;38.44;41.13;101057.53;5087189;28;20478;-76
2022/05/29 05:27:06;;;;;;;14.27;6.70;;;;;;;38.39;41.40;101058.44;5087842;28;20913;-75
2022/05/29 05:29:32;;;;;;;11.63;5.73;;;;;;;38.42;41.07;101052.41;5087837;28;20453;-76
2022/05/29 05:31:58;;;;;;;20.87;8.80;;;;;;;38.27;40.99;101058.16;5088023;28;20422;-75
2022/05/29 05:34:24;;;;;;;15.37;5.43;;;;;;;38.34;40.91;101068.59;5087900;28;20480;-75
2022/05/29 05:36:50;;;;;;;13.07;5.10;;;;;;;38.37;40.57;101078.84;5070967;28;20421;-78
2022/05/29 05:39:16;;;;;;;20.00;5.67;;;;;;;38.43;41.07;101086.56;5087869;28;20635;-76
2022/05/29 05:41:42;;;;;;;12.37;6.07;;;;;;;38.48;41.24;101093.75;5087706;28;20946;-77
2022/05/29 05:44:08;;;;;;;12.43;5.33;;;;;;;38.49;41.00;101089.13;5087736;28;20500;-75
2022/05/29 05:46:34;;;;;;;13.63;5.00;;;;;;;38.50;40.71;101096.97;5070754;28;20818;-75
2022/05/29 05:49:01;;;;;;;15.07;6.43;;;;;;;38.45;40.84;101094.38;5072060;28;20831;-76
2022/05/29 05:51:27;;;;;;;13.50;6.13;;;;;;;38.48;40.15;101096.47;5087614;28;20417;-78
2022/05/29 05:53:53;;;;;;;12.30;5.97;;;;;;;38.50;40.35;101091.56;5070700;28;20441;-78
2022/05/29 05:56:19;;;;;;;11.67;6.00;;;;;;;38.47;40.56;101100.28;5070731;28;20421;-77
2022/05/29 05:58:45;;;;;;;9.93;4.57;;;;;;;38.52;40.84;101108.31;5087550;28;20414;-77
2022/05/29 06:01:15;;;;;;;11.40;5.63;;;;;;;38.50;40.34;101110.53;5087475;28;20438;-77
2022/05/29 06:03:42;;;;;;;14.43;6.53;;;;;;;38.51;40.66;101108.63;5087578;28;20414;-78
2022/05/29 06:06:08;;;;;;;13.27;4.93;;;;;;;38.49;40.23;101108.94;5070535;28;20904;-78
2022/05/29 06:08:35;;;;;;;9.27;5.47;;;;;;;38.53;40.19;101111.81;5087529;28;20410;-78
2022/05/29 06:11:01;;;;;;;9.40;4.70;;;;;;;38.59;40.58;101110.59;5070314;28;20835;-76
2022/05/29 06:13:27;;;;;;;20.27;6.30;;;;;;;38.50;40.95;101113.25;5087296;28;20451;-76
2022/05/29 06:15:53;;;;;;;11.17;5.60;;;;;;;38.51;40.82;101122.97;5071890;28;20904;-76
2022/05/29 06:18:20;;;;;;;11.60;5.97;;;;;;;38.55;40.52;101120.44;5087274;28;20436;-76
2022/05/29 06:20:55;;;;;;;18.60;6.30;;;;;;;38.54;40.67;101126.97;5070524;28;20935;-76
2022/05/29 06:23:21;;;;;;;12.77;6.40;;;;;;;38.57;40.52;101129.09;5070468;28;20508;-76
2022/05/29 06:25:47;;;;;;;10.90;4.50;;;;;;;38.59;39.92;101132.28;5076450;28;20482;-77
2022/05/29 06:28:13;;;;;;;10.57;5.40;;;;;;;38.59;40.14;101138.50;5074087;28;20938;-78
2022/05/29 06:30:40;;;;;;;16.43;6.07;;;;;;;38.57;40.03;101138.00;5073884;28;20452;-78
2022/05/29 06:33:06;;;;;;;14.13;6.50;;;;;;;38.61;39.96;101144.44;5073624;28;20527;-78
2022/05/29 06:35:32;;;;;;;9.03;4.50;;;;;;;38.65;40.16;101136.50;5091788;28;20491;-78
2022/05/29 06:37:58;;;;;;;9.60;4.80;;;;;;;38.66;40.29;101133.47;5073782;28;20444;-78
2022/05/29 06:40:24;;;;;;;11.03;6.80;;;;;;;38.68;40.04;101142.13;5073144;28;20420;-77
2022/05/29 06:42:50;;;;;;;13.47;6.20;;;;;;;38.74;40.40;101144.75;5073329;28;20452;-78
2022/05/29 06:45:16;;;;;;;10.43;5.80;;;;;;;38.72;40.48;101157.78;5091872;28;20411;-77
2022/05/29 06:47:42;;;;;;;12.73;6.37;;;;;;;38.74;39.86;101153.69;5077264;28;20444;-77
2022/05/29 06:50:09;;;;;;;18.60;6.47;;;;;;;38.72;40.19;101160.50;5077410;28;20536;-77
2022/05/29 06:52:36;;;;;;;25.93;13.60;;;;;;;38.73;40.09;101159.38;5077319;28;20443;-77
2022/05/29 06:55:04;;;;;;;21.87;13.47;;;;;;;38.73;39.44;101159.38;5077564;28;20416;-77
2022/05/29 06:57:36;;;;;;;17.80;10.03;;;;;;;38.71;39.98;101167.81;5077213;28;21029;-77
2022/05/29 07:08:30;;;;;;;13.20;5.67;;;;;;;38.73;40.15;101176.47;5075235;28;20388;-78
2022/05/29 07:11:09;;;;;;;29.03;7.17;;;;;;;38.78;40.13;101195.34;5056914;28;20449;-77
2022/05/29 07:13:36;;;;;;;15.20;5.23;;;;;;;38.80;39.76;101197.78;5056932;28;20421;-77
2022/05/29 07:16:03;;;;;;;12.10;4.97;;;;;;;38.83;39.78;101205.28;5067892;28;20416;-77
2022/05/29 07:18:32;;;;;;;11.87;5.90;;;;;;;38.82;39.41;101209.91;5075536;28;20416;-75
2022/05/29 07:21:02;;;;;;;11.60;5.70;;;;;;;38.86;39.52;101204.69;5075588;28;20504;-76
2022/05/29 07:23:29;;;;;;;17.50;6.70;;;;;;;38.93;39.41;101207.78;5092072;28;20397;-76
2022/05/29 07:25:57;;;;;;;21.17;7.70;;;;;;;38.89;39.78;101217.63;5073320;28;20477;-72
2022/05/29 07:28:24;;;;;;;12.13;6.43;;;;;;;38.94;39.55;101222.94;5073385;28;20966;-71
2022/05/29 07:30:51;;;;;;;12.70;4.90;;;;;;;38.89;39.75;101223.03;5066516;28;20477;-74
2022/05/29 07:33:18;;;;;;;11.37;4.57;;;;;;;38.93;39.61;101218.63;5080143;28;20435;-73
2022/05/29 07:35:44;;;;;;;11.40;5.37;;;;;;;39.00;39.18;101224.44;5089513;28;20908;-75
2022/05/29 07:38:11;;;;;;;8.10;4.60;;;;;;;39.00;39.01;101237.19;5072470;28;20812;-76
2022/05/29 07:40:37;;;;;;;10.27;4.90;;;;;;;38.95;39.17;101244.31;5070292;28;20428;-76
2022/05/29 07:43:19;;;;;;;10.47;4.10;;;;;;;39.03;39.32;101247.44;5088592;28;20428;-74
2022/05/29 07:45:49;;;;;;;9.17;4.30;;;;;;;39.10;38.62;101254.06;5074161;22;20504;-75
2022/05/29 07:48:17;;;;;;;9.63;4.67;;;;;;;39.16;38.52;101255.56;5069823;28;20426;-73
2022/05/29 07:50:43;;;;;;;10.70;5.20;;;;;;;39.21;38.35;101257.38;5060421;28;20465;-81
2022/05/29 07:53:09;;;;;;;9.67;3.57;;;;;;;39.22;38.37;101258.97;5079538;28;20442;-78
2022/05/29 07:55:39;;;;;;;14.77;5.70;;;;;;;39.27;38.47;101268.91;5084040;28;20441;-79
2022/05/29 07:58:06;;;;;;;15.57;5.33;;;;;;;39.26;38.49;101259.97;5086957;28;20449;-74
2022/05/29 08:00:34;;;;;;;11.93;5.93;;;;;;;39.29;38.56;101255.81;5066112;28;20544;-72
2022/05/29 08:03:00;;;;;;;11.00;4.37;;;;;;;39.34;38.02;101263.84;5072248;28;20520;-71
2022/05/29 08:05:29;;;;;;;8.37;4.37;;;;;;;39.29;38.27;101258.53;5088710;28;20798;-75
2022/05/29 08:07:55;;;;;;;7.43;3.90;;;;;;;39.28;38.26;101265.06;5073440;28;20459;-73
2022/05/29 08:10:23;;;;;;;10.90;4.87;;;;;;;39.36;38.20;101272.50;5089163;28;20464;-74
2022/05/29 08:12:49;;;;;;;13.30;5.30;;;;;;;39.27;38.54;101272.41;5085138;28;20532;-73
2022/05/29 08:15:15;;;;;;;8.90;3.87;;;;;;;39.22;38.39;101276.03;5085136;28;20479;-72
2022/05/29 08:17:41;;;;;;;8.40;4.47;;;;;;;39.19;38.88;101281.28;5087590;28;20974;-72
2022/05/29 08:20:10;;;;;;;10.23;4.63;;;;;;;39.17;39.11;101278.91;5071337;28;20437;-72
2022/05/29 08:22:36;;;;;;;10.97;6.03;;;;;;;39.19;38.77;101271.25;5070642;28;20436;-71
2022/05/29 08:30:38;;;;;;;10.10;4.20;;;;;;;39.32;38.96;101272.31;5055150;28;20479;-72
2022/05/29 08:33:25;;;;;;;14.17;4.13;;;;;;;39.36;39.05;101277.94;5066505;28;20429;-72
2022/05/29 08:36:14;;;;;;;9.70;6.13;;;;;;;39.31;39.12;101283.47;5088129;28;20449;-71
2022/05/29 08:38:44;;;;;;;10.40;4.33;;;;;;;39.37;39.08;101293.91;5052294;28;20855;-72
2022/05/29 08:41:15;;;;;;;10.40;4.50;;;;;;;39.30;39.10;101292.72;5069984;28;20441;-72
2022/05/29 08:43:56;;;;;;;8.47;5.10;;;;;;;39.31;39.18;101288.91;5071620;28;20952;-72
2022/05/29 08:46:36;;;;;;;13.90;4.30;;;;;;;39.38;39.02;101300.94;5069222;28;20437;-72
2022/05/29 08:49:03;;;;;;;8.83;4.50;;;;;;;39.41;38.89;101300.34;5069209;28;20422;-72
2022/05/29 08:51:41;;;;;;;9.23;4.70;;;;;;;39.36;39.10;101303.16;5087393;28;20471;-72
2022/05/29 08:54:14;;;;;;;9.23;4.43;;;;;;;39.38;39.09;101298.22;5086878;28;20429;-73
2022/05/29 08:57:13;;;;;;;14.83;4.30;;;;;;;39.37;38.86;101298.53;5066079;28;20429;-72
2022/05/29 08:59:50;;;;;;;16.10;6.20;;;;;;;39.44;39.00;101297.00;5067974;28;21004;-73
2022/05/29 09:02:34;;;;;;;9.47;4.57;;;;;;;39.46;38.98;101307.56;5083143;28;20437;-74
2022/05/29 09:05:21;;;;;;;8.37;4.10;;;;;;;39.42;39.11;101301.16;5083495;28;20448;-73
2022/05/29 09:07:49;;;;;;;8.60;4.03;;;;;;;39.48;38.77;101316.22;5070095;28;20401;-72
2022/05/29 09:10:39;;;;;;;9.80;4.40;;;;;;;39.44;39.06;101307.88;5086286;28;20474;-72
2022/05/29 09:13:20;;;;;;;11.07;4.80;;;;;;;39.52;38.92;101303.59;5069257;28;20449;-73
2022/05/29 09:15:58;;;;;;;7.77;4.00;;;;;;;39.59;38.96;101301.25;5068542;28;20433;-73
2022/05/29 09:18:28;;;;;;;10.20;3.63;;;;;;;39.51;38.93;101310.16;5086188;28;20508;-73
2022/05/29 09:21:04;;;;;;;9.60;3.93;;;;;;;39.49;38.84;101304.25;5073885;28;20445;-73
2022/05/29 09:23:42;;;;;;;10.53;4.37;;;;;;;39.56;38.99;101310.03;5067188;28;20417;-72
2022/05/29 09:26:14;;;;;;;12.17;3.83;;;;;;;39.57;38.83;101303.50;5086367;28;20801;-72
2022/05/29 09:28:45;;;;;;;7.43;4.10;;;;;;;39.51;38.80;101304.72;5083774;28;20449;-72
2022/05/29 09:31:21;;;;;;;11.33;6.07;;;;;;;39.52;39.35;101300.91;5074443;28;20870;-72
2022/05/29 09:33:47;;;;;;;11.17;5.30;;;;;;;39.66;38.95;101298.19;5085414;28;20429;-72
2022/05/29 09:36:19;;;;;;;9.90;5.00;;;;;;;39.63;38.90;101310.44;5085584;28;20438;-74
2022/05/29 09:38:50;;;;;;;10.90;6.00;;;;;;;39.68;38.84;101307.63;5084724;28;20436;-73
2022/05/29 09:41:41;;;;;;;7.30;4.30;;;;;;;39.63;39.00;101305.00;5069309;28;20425;-72
2022/05/29 09:44:37;;;;;;;11.50;3.80;;;;;;;39.71;38.68;101298.84;5077305;28;20477;-71
2022/05/29 09:50:11;;;;;;;9.83;3.97;;;;;;;39.69;38.72;101305.69;5070270;28;20445;-72
2022/05/29 09:52:41;;;;;;;20.80;6.37;;;;;;;39.69;39.06;101301.06;5084584;28;20449;-71
2022/05/29 09:55:19;;;;;;;14.03;5.53;;;;;;;39.63;39.24;101291.44;5069913;28;20422;-72
2022/05/29 09:58:17;;;;;;;10.93;4.20;;;;;;;39.73;38.84;101291.19;5083842;28;20441;-72
2022/05/29 10:01:02;;;;;;;10.67;4.90;;;;;;;39.67;39.14;101291.63;5067103;28;20518;-72
2022/05/29 10:03:50;;;;;;;18.70;5.80;;;;;;;39.74;38.88;101292.81;5069192;28;20971;-70
2022/05/29 10:06:25;;;;;;;11.00;6.00;;;;;;;39.65;39.18;101283.78;5068621;28;21021;-71
2022/05/29 10:08:53;;;;;;;11.03;4.80;;;;;;;39.78;38.93;101279.41;5069686;28;20923;-72
2022/05/29 10:11:21;;;;;;;12.87;4.43;;;;;;;39.79;39.42;101277.50;5070281;28;20856;-72
2022/05/29 10:13:49;;;;;;;10.30;4.27;;;;;;;39.87;39.15;101282.97;5083511;28;20457;-72
2022/05/29 10:16:37;;;;;;;11.73;6.17;;;;;;;39.83;38.60;101273.03;5069540;28;20934;-73
2022/05/29 10:19:09;;;;;;;11.10;5.00;;;;;;;39.80;38.77;101274.47;5084118;28;20428;-70
2022/05/29 10:21:45;;;;;;;10.07;5.00;;;;;;;39.81;39.02;101267.13;5072013;28;20461;-70
2022/05/29 10:24:41;;;;;;;12.87;6.77;;;;;;;39.74;39.66;101259.41;5074287;28;20474;-71
2022/05/29 10:27:32;;;;;;;16.47;4.30;;;;;;;39.69;39.68;101260.34;5089520;28;20959;-71
2022/05/29 10:30:03;;;;;;;11.00;5.33;;;;;;;39.74;39.69;101243.91;5081770;28;20592;-74
2022/05/29 10:32:32;;;;;;;9.43;6.37;;;;;;;39.82;39.51;101247.78;5073797;28;20498;-71
2022/05/29 10:35:08;;;;;;;11.13;4.20;;;;;;;39.84;39.17;101239.31;5073563;28;20422;-72
2022/05/29 10:37:42;;;;;;;9.50;5.00;;;;;;;39.73;39.00;101241.53;5073720;28;20414;-71
2022/05/29 10:40:27;;;;;;;9.07;4.40;;;;;;;39.82;38.83;101238.84;5072091;28;20436;-71
2022/05/29 10:43:03;;;;;;;15.30;5.90;;;;;;;39.74;39.24;101235.78;5089979;28;20414;-71
2022/05/29 10:45:44;;;;;;;14.03;5.80;;;;;;;39.78;39.55;101235.13;5072796;28;20465;-73
2022/05/29 10:48:30;;;;;;;10.10;5.07;;;;;;;39.83;39.19;101224.94;5073463;28;20413;-71
2022/05/29 10:50:58;;;;;;;8.50;5.00;;;;;;;39.81;39.09;101221.75;5088965;28;20465;-71
2022/05/29 10:53:42;;;;;;;10.80;6.67;;;;;;;39.91;38.92;101220.69;5088680;28;20457;-75
2022/05/29 10:56:14;;;;;;;12.23;5.63;;;;;;;39.81;39.20;101226.38;5088185;28;20436;-71
2022/05/29 10:58:57;;;;;;;7.13;4.30;;;;;;;39.80;39.30;101220.16;5088001;28;20793;-75
2022/05/29 11:04:56;;;;;;;16.83;5.87;;;;;;;39.76;39.85;101217.25;5072832;28;20401;-72
2022/05/29 11:07:59;;;;;;;10.97;5.07;;;;;;;39.80;39.78;101213.91;5089119;28;20543;-72
2022/05/29 11:10:34;;;;;;;8.30;5.60;;;;;;;39.87;39.19;101223.22;5089147;28;20555;-72
2022/05/29 11:13:18;;;;;;;17.30;8.20;;;;;;;39.76;39.27;101221.88;5073268;28;20444;-69
2022/05/29 11:16:00;;;;;;;12.60;6.47;;;;;;;39.82;40.01;101220.63;5091910;28;20456;-71
2022/05/29 11:19:03;;;;;;;17.80;6.30;;;;;;;39.97;39.72;101228.41;5089259;28;20433;-71
2022/05/29 11:22:25;;;;;;;10.47;5.43;;;;;;;39.83;39.95;101226.88;5072426;28;20492;-70
2022/05/29 11:25:10;;;;;;;11.37;5.60;;;;;;;39.71;39.10;101222.78;5028938;28;20417;-70
2022/05/29 11:28:07;;;;;;;16.00;5.10;;;;;;;39.73;39.22;101223.31;5085032;28;20524;-70
2022/05/29 11:30:39;;;;;;;12.60;5.90;;;;;;;39.85;39.14;101211.06;5071469;28;20461;-72
2022/05/29 11:33:36;;;;;;;23.63;7.50;;;;;;;39.94;38.67;101215.44;5089302;28;20456;-72
2022/05/29 11:36:22;;;;;;;12.23;5.70;;;;;;;39.79;39.71;101204.97;5089425;28;20607;-71
2022/05/29 11:39:01;;;;;;;12.17;7.00;;;;;;;39.92;39.19;101206.00;5088065;28;20445;-74
2022/05/29 11:41:36;;;;;;;12.97;6.83;;;;;;;39.93;38.88;101197.53;5072195;28;20417;-77
2022/05/29 11:44:26;;;;;;;10.53;6.37;;;;;;;39.81;38.15;101194.59;5085063;28;20425;-72
2022/05/29 11:52:52;;;;;;;8.93;6.30;;;;;;;39.91;38.41;101191.63;5067471;28;20432;-69
2022/05/29 11:55:25;;;;;;;9.40;5.53;;;;;;;39.84;39.17;101199.41;5088486;28;20853;-70
2022/05/29 11:58:11;;;;;;;13.50;5.70;;;;;;;39.73;39.20;101189.91;5065037;28;20512;-72
2022/05/29 12:01:12;;;;;;;10.00;4.80;;;;;;;39.89;38.80;101177.53;5071823;28;20942;-70
2022/05/29 12:03:49;;;;;;;18.30;5.50;;;;;;;40.01;38.65;101183.19;5071957;28;20984;-71
2022/05/29 12:06:27;;;;;;;11.40;6.50;;;;;;;40.08;38.56;101168.38;5080514;28;20512;-72
2022/05/29 12:09:15;;;;;;;11.90;5.67;;;;;;;39.88;39.08;101159.63;5071492;28;20421;-70
2022/05/29 12:11:58;;;;;;;15.87;7.10;;;;;;;39.87;39.15;101159.94;5062486;28;20533;-72
2022/05/29 12:14:33;;;;;;;15.13;7.60;;;;;;;39.78;39.56;101148.22;5067940;28;20406;-71
2022/05/29 12:17:11;;;;;;;10.10;6.27;;;;;;;39.98;39.50;101145.78;5070794;28;20418;-71
2022/05/29 12:19:48;;;;;;;13.97;7.83;;;;;;;39.94;39.67;101133.94;5087251;28;20413;-80
2022/05/29 12:22:22;;;;;;;8.83;5.57;;;;;;;40.06;39.68;101138.81;5072249;28;20414;-73